Terminal Aerodrome Forecast
Issued by NWS Corpus Christi, TX

Home | Current Version | Previous Version | Text Only | Print | Product List | Glossary On
Versions: 1 2 3 4 5 6 7 8 9 10 11 12 13 14 15
000
FTUS44 KCRP 182055 AAA
TAFCRP
TAF AMD
KCRP 182055Z 1821/1918 30008KT P6SM OVC025
     FM190000 34005KT P6SM VCSH OVC012
     FM190700 34005KT 3SM -SHRA OVC008
     FM191400 31005KT P6SM OVC015=

USA.gov is the U.S. government's official web portal to all federal, state and local government web resources and services.